Search for airport 
image banner adimage banner adimage banner ad
image banner ad

7PN3 - Suburban Community Hospital

Located in Norristown, United States

ICAO - 7PN3, IATA -

Data provided by Airmate  

General information

Coordinates: N40°8'24" W75°18'54"
Elevation is 316 feet MSL.
Magnetic variation is -11° East
View others Airports in Pennsylvania

Operational data

Special qualification required
Current time UTC:
Current local time:
Weather at : KLOM - Wings Field ( 4 km )
METAR: KLOM 071255Z AUTO 08006KT 10SM CLR 13/02 A2992 RMK AO2 T01310022
View NOTAMs / SUP AIP / TFR affecting this airport [VIEW]
Communications frequencies: [VIEW]

Runways:

Airport contact information

Address: Norristown United States

Satellite view of 7PN3